Time;durP1;ratioP1;P1;durP2;ratioP2;P2;SDS_P1;SDS_P2;PMS_P1;PMS_P2;Temp;Humidity;BMP_temperature;BMP_pressure;BME280_temperature;BME280_humidity;BME280_pressure;Samples;Min_cycle;Max_cycle;Signal;HPM_P1;HPM_P2
2022/05/02 00:00:03;;;;;;;0.00;0.00;;;;;;;12.93;63.71;99196.97;5055753;28;20527;-80
2022/05/02 00:02:28;;;;;;;0.10;0.10;;;;;;;12.96;63.61;99204.44;5056979;28;20104;-80
2022/05/02 00:04:54;;;;;;;0.00;0.00;;;;;;;12.93;63.52;99199.66;5055683;28;20115;-79
2022/05/02 00:07:19;;;;;;;0.00;0.00;;;;;;;12.92;63.52;99204.22;5055451;28;20407;-80
2022/05/02 00:09:44;;;;;;;0.00;0.00;;;;;;;12.92;63.20;99204.22;5052938;28;20033;-79
2022/05/02 00:12:10;;;;;;;0.08;0.08;;;;;;;12.87;63.42;99198.91;5052341;28;20498;-79
2022/05/02 00:14:36;;;;;;;0.00;0.00;;;;;;;12.86;63.24;99205.38;5052499;28;20025;-79
2022/05/02 00:17:02;;;;;;;0.00;0.00;;;;;;;12.86;62.33;99202.69;5053427;28;20037;-79
2022/05/02 00:19:28;;;;;;;0.00;0.00;;;;;;;12.77;62.51;99202.53;5052097;28;20421;-79
2022/05/02 00:21:53;;;;;;;0.00;0.00;;;;;;;12.70;62.42;99198.59;5052378;28;20141;-80
2022/05/02 00:24:18;;;;;;;0.00;0.00;;;;;;;12.63;62.27;99199.75;5052060;28;20135;-79
2022/05/02 00:26:44;;;;;;;0.00;0.00;;;;;;;12.60;62.34;99199.50;5052318;28;20490;-80
2022/05/02 00:29:09;;;;;;;0.00;0.00;;;;;;;12.56;62.58;99188.56;5052110;28;20029;-81
2022/05/02 00:31:35;;;;;;;0.00;0.00;;;;;;;12.53;62.39;99177.59;5052172;28;20027;-80
2022/05/02 00:34:00;;;;;;;0.00;0.00;;;;;;;12.51;62.74;99172.50;5053769;28;20039;-80
2022/05/02 00:36:26;;;;;;;0.85;0.45;;;;;;;12.56;62.40;99172.47;5051898;28;20471;-80
2022/05/02 00:38:52;;;;;;;0.00;0.00;;;;;;;12.60;62.59;99164.63;5052048;28;20035;-81
2022/05/02 00:41:19;;;;;;;0.00;0.00;;;;;;;12.49;62.37;99167.41;5051820;28;20025;-80
2022/05/02 00:43:45;;;;;;;0.00;0.00;;;;;;;12.39;63.24;99159.50;5052001;28;20661;-80
2022/05/02 00:46:22;;;;;;;0.00;0.00;;;;;;;12.38;62.79;99162.44;5053397;28;20062;-80
2022/05/02 00:48:48;;;;;;;0.00;0.00;;;;;;;12.33;63.00;99163.31;5051951;28;20025;-82
2022/05/02 00:51:15;;;;;;;0.00;0.00;;;;;;;12.33;63.09;99157.94;5051324;28;20045;-80
2022/05/02 00:53:43;;;;;;;0.00;0.00;;;;;;;12.29;63.51;99155.03;5052874;28;20054;-80
2022/05/02 00:56:09;;;;;;;0.00;0.00;;;;;;;12.24;63.83;99149.75;5052907;28;20081;-80
2022/05/02 00:58:36;;;;;;;0.00;0.00;;;;;;;12.26;63.68;99154.81;5053002;28;20107;-80
2022/05/02 01:01:03;;;;;;;0.00;0.00;;;;;;;12.25;64.13;99155.88;5051679;28;20029;-81
2022/05/02 01:03:28;;;;;;;0.00;0.00;;;;;;;12.24;63.72;99144.38;5052922;28;20029;-80
2022/05/02 01:08:38;;;;;;;0.00;0.00;;;;;;;12.23;64.29;99155.38;5052823;28;20541;-80
2022/05/02 01:11:04;;;;;;;0.28;0.28;;;;;;;12.21;65.23;99158.34;5052477;28;20025;-80
2022/05/02 01:13:36;;;;;;;0.00;0.00;;;;;;;12.13;65.96;99154.41;5053050;28;20558;-80
2022/05/02 01:16:23;;;;;;;0.00;0.00;;;;;;;11.97;66.93;99145.72;5051262;28;20389;-80
2022/05/02 01:18:51;;;;;;;0.00;0.00;;;;;;;11.91;66.58;99149.47;5051449;28;20021;-80
2022/05/02 01:21:25;;;;;;;0.00;0.00;;;;;;;11.95;66.82;99155.88;5049839;28;20032;-80
2022/05/02 01:23:54;;;;;;;0.00;0.00;;;;;;;11.95;66.55;99153.19;5051151;28;20074;-82
2022/05/02 01:26:19;;;;;;;;;;;;;;;12.05;65.33;99146.16;5051421;28;20039;-80
2022/05/02 01:29:06;;;;;;;0.00;0.00;;;;;;;12.06;65.39;99140.53;5051143;28;20330;-80
2022/05/02 01:31:32;;;;;;;0.43;0.43;;;;;;;12.07;64.52;99144.00;5051174;28;20400;-80
2022/05/02 01:33:57;;;;;;;0.00;0.00;;;;;;;12.10;63.81;99148.81;5051007;28;20119;-82
2022/05/02 01:36:24;;;;;;;0.00;0.00;;;;;;;12.09;63.45;99133.81;5050724;28;20024;-82
2022/05/02 01:38:50;;;;;;;0.00;0.00;;;;;;;12.06;63.62;99124.44;5050990;28;20060;-81
2022/05/02 01:41:16;;;;;;;0.00;0.00;;;;;;;12.02;62.84;99126.06;5052214;28;20028;-81
2022/05/02 01:43:43;;;;;;;0.00;0.00;;;;;;;11.99;63.18;99121.31;5050839;28;20098;-81
2022/05/02 01:46:09;;;;;;;0.00;0.00;;;;;;;11.98;63.07;99114.34;5050589;28;20403;-80
2022/05/02 01:48:35;;;;;;;0.00;0.00;;;;;;;11.97;62.61;99110.06;5050840;28;20472;-82
2022/05/02 01:51:00;;;;;;;0.00;0.00;;;;;;;11.97;62.88;99100.16;5050565;28;20083;-82
2022/05/02 01:53:26;;;;;;;0.00;0.00;;;;;;;11.98;62.43;99101.72;5050403;28;20018;-82
2022/05/02 01:55:52;;;;;;;0.00;0.00;;;;;;;12.03;62.50;99110.81;5050477;28;20476;-80
2022/05/02 01:58:18;;;;;;;0.00;0.00;;;;;;;12.03;61.83;99097.41;5050343;28;20078;-81
2022/05/02 02:00:44;;;;;;;0.00;0.00;;;;;;;11.94;62.74;99103.34;5050558;28;20408;-81
2022/05/02 02:03:10;;;;;;;0.15;0.15;;;;;;;11.90;62.10;99094.28;5050284;28;20024;-81
2022/05/02 02:05:51;;;;;;;0.00;0.00;;;;;;;12.00;61.66;99104.13;5050417;28;20033;-82
2022/05/02 02:08:23;;;;;;;0.00;0.00;;;;;;;11.97;62.11;99081.38;5050192;28;20025;-81
2022/05/02 02:10:51;;;;;;;0.00;0.00;;;;;;;11.69;62.51;99082.94;5050339;28;20397;-82
2022/05/02 02:13:17;;;;;;;0.00;0.00;;;;;;;11.61;62.99;99083.56;5050045;28;20020;-82
2022/05/02 02:15:43;;;;;;;0.00;0.00;;;;;;;11.53;63.39;99083.09;5050204;28;20036;-82
2022/05/02 02:18:09;;;;;;;0.00;0.00;;;;;;;11.48;64.32;99074.31;5049999;28;20033;-82
2022/05/02 02:20:35;;;;;;;0.00;0.00;;;;;;;11.44;64.42;99068.72;5050153;28;20116;-81
2022/05/02 02:23:01;;;;;;;0.00;0.00;;;;;;;11.40;64.57;99069.56;5050285;28;20477;-82
2022/05/02 02:25:26;;;;;;;0.00;0.00;;;;;;;11.39;65.32;99076.78;5049801;28;20112;-82
2022/05/02 02:27:52;;;;;;;0.00;0.00;;;;;;;11.33;66.14;99064.53;5050115;28;20431;-82
2022/05/02 02:30:19;;;;;;;0.00;0.00;;;;;;;11.33;66.19;99059.97;5049819;28;20037;-82
2022/05/02 02:32:45;;;;;;;0.00;0.00;;;;;;;11.34;65.69;99058.88;5083283;28;20498;-80
2022/05/02 02:35:10;;;;;;;0.00;0.00;;;;;;;11.34;66.62;99056.22;5049640;28;20033;-82
2022/05/02 02:37:36;;;;;;;0.00;0.00;;;;;;;11.26;66.76;99058.69;5049916;28;20119;-82
2022/05/02 02:40:03;;;;;;;0.00;0.00;;;;;;;11.20;66.54;99058.75;5049981;28;20415;-82
2022/05/02 02:42:28;;;;;;;0.00;0.00;;;;;;;11.16;67.05;99060.38;5049626;28;20021;-82
2022/05/02 02:44:53;;;;;;;0.00;0.00;;;;;;;11.10;67.32;99060.69;5049797;28;20503;-82
2022/05/02 02:47:19;;;;;;;0.00;0.00;;;;;;;10.98;68.03;99059.16;5049341;28;20036;-82
2022/05/02 02:49:44;;;;;;;0.00;0.00;;;;;;;10.99;67.69;99050.03;5049430;28;20025;-81
2022/05/02 02:52:10;;;;;;;0.00;0.00;;;;;;;10.97;66.35;99070.91;5049642;28;20120;-81
2022/05/02 02:54:36;;;;;;;0.00;0.00;;;;;;;10.97;65.80;99076.28;5049726;28;20037;-81
2022/05/02 02:57:01;;;;;;;0.00;0.00;;;;;;;10.95;65.55;99082.97;5049660;28;20086;-82
2022/05/02 02:59:27;;;;;;;0.00;0.00;;;;;;;10.93;65.17;99079.81;5049558;28;20170;-81
2022/05/02 03:01:53;;;;;;;0.00;0.00;;;;;;;10.93;64.98;99090.50;5049647;28;20095;-81
2022/05/02 03:07:03;;;;;;;0.05;0.05;;;;;;;10.92;65.07;99086.22;5050996;28;20106;-81
2022/05/02 03:09:30;;;;;;;0.00;0.00;;;;;;;10.86;64.93;99088.13;5050887;28;20120;-82
2022/05/02 03:11:55;;;;;;;0.00;0.00;;;;;;;10.85;65.24;99086.53;5050817;28;20033;-81
2022/05/02 03:14:21;;;;;;;0.00;0.00;;;;;;;10.84;64.92;99085.72;5049352;28;20443;-81
2022/05/02 03:16:46;;;;;;;0.00;0.00;;;;;;;10.87;64.80;99081.69;5049450;28;20025;-81
2022/05/02 03:19:12;;;;;;;0.40;0.35;;;;;;;10.85;64.73;99079.31;5049299;28;20060;-81
2022/05/02 03:21:37;;;;;;;0.00;0.00;;;;;;;10.81;64.53;99080.13;5049191;28;20471;-81
2022/05/02 03:24:03;;;;;;;0.00;0.00;;;;;;;10.89;64.52;99084.91;5049372;28;20056;-80
2022/05/02 03:26:28;;;;;;;0.00;0.00;;;;;;;10.94;64.28;99094.78;5049201;28;20033;-81
2022/05/02 03:28:54;;;;;;;0.00;0.00;;;;;;;11.00;63.72;99085.66;5050978;28;20037;-81
2022/05/02 03:31:19;;;;;;;0.00;0.00;;;;;;;11.04;63.79;99095.50;5049212;28;20033;-81
2022/05/02 03:33:45;;;;;;;0.00;0.00;;;;;;;11.18;63.60;99089.53;5049449;28;20025;-82
2022/05/02 03:36:10;;;;;;;0.00;0.00;;;;;;;11.28;63.29;99083.28;5049097;28;20055;-81
2022/05/02 03:38:36;;;;;;;0.00;0.00;;;;;;;11.44;63.09;99081.31;5049281;28;20551;-81
2022/05/02 03:41:01;;;;;;;0.00;0.00;;;;;;;11.62;62.48;99083.28;5049112;28;20098;-81
2022/05/02 03:43:26;;;;;;;0.00;0.00;;;;;;;11.87;62.47;99086.81;5049066;28;20040;-81
2022/05/02 03:45:52;;;;;;;0.00;0.00;;;;;;;12.13;61.87;99084.69;5052430;28;20502;-81
2022/05/02 03:48:17;;;;;;;0.00;0.00;;;;;;;12.34;61.58;99081.78;5052827;28;20021;-81
2022/05/02 03:50:42;;;;;;;0.00;0.00;;;;;;;12.62;60.40;99077.41;5052799;28;20178;-80
2022/05/02 03:53:09;;;;;;;0.00;0.00;;;;;;;12.98;59.60;99076.88;5052719;28;20021;-80
2022/05/02 03:55:34;;;;;;;0.00;0.00;;;;;;;13.29;59.09;99073.75;5054184;28;20024;-79
2022/05/02 03:58:02;;;;;;;0.10;0.10;;;;;;;13.64;58.00;99073.47;5052853;28;20029;-79
2022/05/02 04:00:27;;;;;;;0.00;0.00;;;;;;;13.99;57.41;99068.56;5052616;28;20237;-79
2022/05/02 04:02:53;;;;;;;0.00;0.00;;;;;;;14.41;56.25;99079.31;5053066;28;20087;-79
2022/05/02 04:05:18;;;;;;;0.00;0.00;;;;;;;14.81;55.89;99086.84;5052422;28;20465;-79
2022/05/02 04:07:43;;;;;;;0.00;0.00;;;;;;;15.16;54.72;99074.47;5052673;28;20029;-79
2022/05/02 04:10:09;;;;;;;0.00;0.00;;;;;;;15.50;53.68;99069.59;5052053;28;20033;-79
2022/05/02 04:12:36;;;;;;;0.10;0.10;;;;;;;15.89;53.29;99061.91;5052632;28;20049;-79
2022/05/02 04:15:03;;;;;;;0.10;0.10;;;;;;;16.29;52.14;99065.38;5052498;28;20516;-79
2022/05/02 04:17:28;;;;;;;0.10;0.10;;;;;;;16.62;51.73;99065.00;5053093;28;20033;-79
2022/05/02 04:19:53;;;;;;;0.10;0.10;;;;;;;17.00;50.71;99063.59;5052445;28;20032;-78
2022/05/02 04:22:19;;;;;;;0.00;0.00;;;;;;;17.41;49.87;99062.28;5053267;28;20025;-79
2022/05/02 04:24:44;;;;;;;0.10;0.10;;;;;;;17.86;48.30;99062.97;5053284;28;20028;-79
2022/05/02 04:27:10;;;;;;;0.20;0.20;;;;;;;18.19;47.25;99057.75;5051980;28;20412;-79
2022/05/02 04:29:35;;;;;;;0.10;0.10;;;;;;;18.53;46.17;99061.38;5052276;28;20166;-79
2022/05/02 04:32:00;;;;;;;0.10;0.10;;;;;;;18.94;45.27;99052.81;5053764;28;20407;-80
2022/05/02 04:34:26;;;;;;;0.05;0.05;;;;;;;19.22;44.50;99058.47;5051924;28;20025;-78
2022/05/02 04:36:52;;;;;;;0.00;0.00;;;;;;;19.41;44.05;99059.88;5053352;28;20060;-79
2022/05/02 04:39:17;;;;;;;0.00;0.00;;;;;;;19.59;43.77;99055.88;5052778;28;20037;-79
2022/05/02 04:41:42;;;;;;;0.00;0.00;;;;;;;19.88;43.63;99050.63;5053622;28;20103;-79
2022/05/02 04:44:08;;;;;;;0.20;0.20;;;;;;;20.15;42.96;99051.88;5051953;28;20021;-79
2022/05/02 04:46:33;;;;;;;0.00;0.00;;;;;;;20.54;42.19;99056.94;5051616;28;20121;-79
2022/05/02 04:48:59;;;;;;;0.00;0.00;;;;;;;20.84;41.40;99056.69;5053199;28;20103;-79
2022/05/02 04:51:24;;;;;;;0.00;0.00;;;;;;;21.13;40.86;99058.25;5051396;28;20411;-80
2022/05/02 04:53:49;;;;;;;0.03;0.03;;;;;;;21.21;40.95;99061.97;5053368;28;20029;-79
2022/05/02 04:56:15;;;;;;;0.10;0.10;;;;;;;21.47;40.60;99063.41;5051104;28;20029;-79
2022/05/02 04:58:40;;;;;;;0.10;0.10;;;;;;;21.62;40.13;99061.88;5051622;28;20468;-79
2022/05/02 05:01:06;;;;;;;0.00;0.00;;;;;;;21.68;40.10;99063.19;5051633;28;20033;-80
2022/05/02 05:03:33;;;;;;;0.30;0.30;;;;;;;21.93;39.76;99065.78;5051296;28;20107;-79
2022/05/02 05:05:58;;;;;;;0.00;0.00;;;;;;;22.02;39.84;99069.91;5051574;28;20032;-79
2022/05/02 05:08:23;;;;;;;0.10;0.10;;;;;;;22.28;39.74;99070.50;5052574;28;20021;-79
2022/05/02 05:11:04;;;;;;;0.08;0.08;;;;;;;22.47;38.91;99077.94;5051377;28;20460;-79
2022/05/02 05:16:20;;;;;;;0.00;0.00;;;;;;;22.71;38.97;99074.97;5052820;28;20064;-79
2022/05/02 05:16:53;;;;;;;0.00;0.00;;;;;;;23.14;38.41;99071.53;5052280;28;20102;-80
2022/05/02 05:19:28;;;;;;;0.00;0.00;;;;;;;23.26;37.07;99071.41;5052204;28;20025;-79
2022/05/02 05:22:14;;;;;;;0.00;0.00;;;;;;;23.00;37.51;99075.56;5052554;28;20554;-79
2022/05/02 05:25:00;;;;;;;0.00;0.00;;;;;;;23.06;37.79;99083.44;5051167;28;20029;-79
2022/05/02 05:28:08;;;;;;;0.00;0.00;;;;;;;23.05;37.67;99085.41;5050924;28;20033;-80
2022/05/02 05:30:42;;;;;;;0.00;0.00;;;;;;;22.88;38.00;99080.38;5050187;28;20037;-78
2022/05/02 05:33:25;;;;;;;0.00;0.00;;;;;;;23.10;36.99;99085.09;5052308;28;20120;-80
2022/05/02 05:36:08;;;;;;;0.00;0.00;;;;;;;22.91;36.94;99087.84;5052487;28;20028;-80
2022/05/02 05:38:58;;;;;;;0.10;0.10;;;;;;;22.51;37.79;99087.00;5051710;28;20076;-79
2022/05/02 05:41:36;;;;;;;0.63;0.38;;;;;;;22.27;38.30;99087.97;5051623;28;20100;-76
2022/05/02 05:44:48;;;;;;;0.20;0.20;;;;;;;22.04;38.02;99094.03;5052101;28;20082;-77
2022/05/02 05:47:25;;;;;;;0.10;0.10;;;;;;;21.77;38.83;99095.72;5053001;28;20043;-77
2022/05/02 05:50:04;;;;;;;0.00;0.00;;;;;;;21.49;38.80;99080.19;5050459;28;20052;-78
2022/05/02 05:52:58;;;;;;;0.00;0.00;;;;;;;21.23;39.70;99079.50;5050145;28;20139;-78
2022/05/02 05:55:47;;;;;;;0.00;0.00;;;;;;;21.10;39.70;99086.94;5050365;28;20028;-78
2022/05/02 05:58:20;;;;;;;0.00;0.00;;;;;;;21.07;40.10;99084.13;5051701;28;20059;-79
2022/05/02 06:00:50;;;;;;;0.22;0.13;;;;;;;20.77;40.23;99073.56;5050385;28;20056;-79
2022/05/02 06:03:22;;;;;;;0.00;0.00;;;;;;;20.63;39.24;99068.47;5050365;28;20025;-79
2022/05/02 06:05:47;;;;;;;0.15;0.15;;;;;;;20.56;40.21;99077.19;5051395;28;20158;-79
2022/05/02 06:08:19;;;;;;;0.80;0.57;;;;;;;20.45;39.43;99076.06;5049468;28;20053;-79
2022/05/02 06:10:46;;;;;;;0.10;0.10;;;;;;;20.33;39.88;99082.31;5051612;28;20029;-79
2022/05/02 06:13:15;;;;;;;0.10;0.10;;;;;;;20.17;40.15;99076.00;5051282;28;20033;-79
2022/05/02 06:18:31;;;;;;;0.10;0.10;;;;;;;19.75;39.03;99090.47;5051097;28;20101;-80
2022/05/02 06:21:07;;;;;;;0.10;0.10;;;;;;;19.40;39.71;99094.34;5051428;28;20488;-80
2022/05/02 06:23:46;;;;;;;0.40;0.40;;;;;;;18.91;40.39;99092.22;5051447;28;20048;-80
2022/05/02 06:26:11;;;;;;;0.10;0.10;;;;;;;18.71;42.26;99099.97;5051401;28;20029;-80
2022/05/02 06:28:41;;;;;;;0.22;0.22;;;;;;;18.50;42.88;99080.97;5051051;28;20032;-80
2022/05/02 06:31:14;;;;;;;0.80;0.30;;;;;;;18.36;43.28;99093.97;5049913;28;20028;-80
2022/05/02 06:33:41;;;;;;;0.30;0.30;;;;;;;18.23;42.93;99091.16;5049587;28;20024;-80
2022/05/02 06:36:15;;;;;;;0.00;0.00;;;;;;;18.13;43.17;99091.53;5049488;28;20029;-80
2022/05/02 06:38:47;;;;;;;0.00;0.00;;;;;;;18.15;43.46;99104.72;5049936;28;20029;-80
2022/05/02 06:41:26;;;;;;;0.00;0.00;;;;;;;18.26;44.35;99103.28;5051240;28;20025;-79
2022/05/02 06:44:03;;;;;;;0.22;0.22;;;;;;;17.98;44.49;99111.00;5051482;28;20021;-79
2022/05/02 06:46:45;;;;;;;0.10;0.10;;;;;;;17.92;44.58;99104.97;5050875;28;20082;-79
2022/05/02 06:49:16;;;;;;;0.13;0.13;;;;;;;17.82;44.94;99110.72;5051453;28;20290;-79
2022/05/02 06:51:49;;;;;;;0.20;0.20;;;;;;;17.75;45.20;99103.88;5051059;28;20549;-79
2022/05/02 06:54:20;;;;;;;1.00;0.95;;;;;;;17.67;45.39;99101.22;5050766;28;20029;-79
2022/05/02 06:57:33;;;;;;;0.10;0.10;;;;;;;17.75;45.13;99100.41;5049563;28;20029;-79
2022/05/02 07:00:06;;;;;;;0.50;0.50;;;;;;;17.70;45.45;99095.13;5048077;28;20029;-79
2022/05/02 07:02:50;;;;;;;0.10;0.10;;;;;;;17.74;45.61;99091.47;5031185;28;20040;-79
2022/05/02 07:05:26;;;;;;;0.25;0.25;;;;;;;17.73;45.33;99099.91;5041228;28;20035;-79
2022/05/02 07:08:05;;;;;;;0.00;0.00;;;;;;;17.82;45.37;99092.59;5049600;28;20552;-79
2022/05/02 07:10:38;;;;;;;0.65;0.65;;;;;;;17.85;45.34;99094.63;5050901;28;20104;-79
2022/05/02 07:13:31;;;;;;;0.10;0.10;;;;;;;17.96;45.19;99089.69;5049501;28;20469;-79
2022/05/02 07:16:23;;;;;;;0.28;0.28;;;;;;;18.06;44.95;99083.91;5049407;28;20103;-79
2022/05/02 07:19:10;;;;;;;0.00;0.00;;;;;;;17.95;44.60;99079.97;5051138;28;20465;-79
2022/05/02 07:21:46;;;;;;;0.15;0.15;;;;;;;17.85;45.35;99074.91;5053169;28;20064;-79
2022/05/02 07:24:40;;;;;;;0.10;0.10;;;;;;;17.84;45.42;99076.03;5054802;28;20040;-79
2022/05/02 07:27:44;;;;;;;0.20;0.17;;;;;;;17.95;45.57;99062.97;5054668;28;20028;-79
2022/05/02 07:30:10;;;;;;;0.00;0.00;;;;;;;17.95;45.50;99060.25;5054336;28;20476;-79
2022/05/02 07:32:36;;;;;;;0.00;0.00;;;;;;;17.89;45.88;99057.72;5053031;28;20094;-79
2022/05/02 07:35:02;;;;;;;0.08;0.08;;;;;;;17.98;45.97;99060.41;5053270;28;20110;-79
2022/05/02 07:37:31;;;;;;;0.15;0.15;;;;;;;18.07;43.92;99058.44;5052946;28;20082;-79
2022/05/02 07:39:57;;;;;;;0.20;0.20;;;;;;;18.08;43.61;99051.91;5053125;28;20150;-78
2022/05/02 07:42:25;;;;;;;0.28;0.28;;;;;;;18.11;44.50;99047.75;5052808;28;20029;-79
2022/05/02 07:44:54;;;;;;;0.28;0.28;;;;;;;18.18;44.70;99050.75;5053135;28;20116;-78
2022/05/02 07:47:21;;;;;;;0.15;0.15;;;;;;;18.06;44.17;99056.06;5052645;28;20119;-78
2022/05/02 07:49:50;;;;;;;0.10;0.10;;;;;;;18.04;44.40;99055.59;5054368;28;20036;-79
2022/05/02 07:52:24;;;;;;;0.10;0.10;;;;;;;18.07;44.28;99042.19;5054593;28;20110;-79
2022/05/02 07:54:50;;;;;;;0.20;0.20;;;;;;;17.90;44.12;99047.66;5052833;28;20549;-78
2022/05/02 07:57:16;;;;;;;0.00;0.00;;;;;;;17.87;44.07;99041.00;5054068;28;20480;-78
2022/05/02 07:59:45;;;;;;;0.38;0.38;;;;;;;17.84;43.90;99040.84;5052844;28;20028;-78
2022/05/02 08:02:11;;;;;;;0.10;0.10;;;;;;;17.58;43.79;99039.03;5053801;28;20037;-79
2022/05/02 08:04:37;;;;;;;0.30;0.30;;;;;;;17.46;44.34;99020.78;5052442;28;20032;-78
2022/05/02 08:07:09;;;;;;;0.10;0.10;;;;;;;17.50;44.92;99016.28;5052662;28;20043;-78
2022/05/02 08:10:14;;;;;;;0.15;0.15;;;;;;;17.57;45.51;99023.94;5052282;28;20052;-79
2022/05/02 08:12:54;;;;;;;0.20;0.20;;;;;;;17.49;45.15;99019.34;5052947;28;20037;-79
2022/05/02 08:15:31;;;;;;;0.00;0.00;;;;;;;17.49;45.42;99008.53;5051863;28;20057;-78
2022/05/02 08:18:06;;;;;;;0.13;0.13;;;;;;;17.52;45.68;99000.56;5052167;28;20029;-79
2022/05/02 08:20:34;;;;;;;0.85;0.85;;;;;;;17.52;45.64;98995.16;5052203;28;20064;-79
2022/05/02 08:29:10;;;;;;;0.20;0.20;;;;;;;17.52;46.65;98988.97;5053549;28;20503;-79
2022/05/02 08:31:54;;;;;;;0.10;0.10;;;;;;;17.58;45.76;98972.22;5051169;28;20025;-79
2022/05/02 08:34:32;;;;;;;0.20;0.20;;;;;;;17.62;47.24;98974.28;5051773;28;20031;-79
2022/05/02 08:37:23;;;;;;;0.20;0.20;;;;;;;17.55;47.24;98963.97;5052017;28;20120;-79
2022/05/02 08:40:25;;;;;;;0.03;0.03;;;;;;;17.53;47.47;98958.09;5052086;28;20033;-79
2022/05/02 08:43:13;;;;;;;0.10;0.10;;;;;;;17.57;48.38;98950.91;5053325;28;20498;-80
2022/05/02 08:45:55;;;;;;;0.20;0.20;;;;;;;17.46;46.97;98944.28;5051786;28;20060;-79
2022/05/02 08:48:39;;;;;;;0.20;0.20;;;;;;;17.47;47.01;98951.25;5051657;28;20028;-79
2022/05/02 08:51:32;;;;;;;0.65;0.65;;;;;;;17.55;45.42;98942.34;5053218;28;20048;-79
2022/05/02 08:54:22;;;;;;;0.00;0.00;;;;;;;17.62;44.59;98939.91;5053428;28;20056;-79
2022/05/02 08:56:50;;;;;;;0.40;0.40;;;;;;;17.56;44.34;98936.59;5051655;28;20029;-79
2022/05/02 08:59:34;;;;;;;;;;;;;;;17.65;44.21;98938.47;5052144;28;20032;-79
2022/05/02 09:02:42;;;;;;;0.00;0.00;;;;;;;17.78;44.18;98940.16;5051646;28;19915;-79
2022/05/02 09:05:39;;;;;;;0.38;0.30;;;;;;;17.82;44.67;98943.81;5051595;28;20067;-79
2022/05/02 09:08:35;;;;;;;0.55;0.20;;;;;;;17.87;43.99;98943.63;5052729;28;20057;-79
2022/05/02 09:11:32;;;;;;;0.30;0.30;;;;;;;17.93;44.36;98936.09;5051327;28;20033;-79
2022/05/02 09:14:36;;;;;;;0.00;0.00;;;;;;;17.98;44.13;98933.25;5052811;28;20036;-79
2022/05/02 09:17:26;;;;;;;0.10;0.10;;;;;;;18.01;43.90;98929.84;5050976;28;20116;-79
2022/05/02 09:20:17;;;;;;;0.28;0.28;;;;;;;18.07;44.15;98925.06;5052493;28;20025;-79
2022/05/02 09:23:12;;;;;;;0.10;0.10;;;;;;;17.97;44.72;98920.03;5052209;28;20032;-79
2022/05/02 09:26:03;;;;;;;0.10;0.10;;;;;;;18.08;45.51;98921.22;5052120;28;20025;-79
2022/05/02 09:28:38;;;;;;;0.10;0.10;;;;;;;18.23;44.55;98930.69;5050763;28;20033;-79
2022/05/02 09:31:22;;;;;;;0.00;0.00;;;;;;;18.35;44.17;98936.16;5050959;28;20021;-80
2022/05/02 09:33:59;;;;;;;0.05;0.05;;;;;;;18.32;44.14;98936.81;5050566;28;20044;-79
2022/05/02 09:36:25;;;;;;;0.55;0.55;;;;;;;18.31;44.88;98935.25;5052025;28;20086;-80
2022/05/02 09:39:01;;;;;;;0.10;0.10;;;;;;;18.44;44.73;98921.75;5050928;28;20476;-79
2022/05/02 09:41:40;;;;;;;0.10;0.10;;;;;;;18.39;44.72;98926.25;5051362;28;20552;-79
2022/05/02 09:50:11;;;;;;;0.10;0.10;;;;;;;18.35;44.48;98929.97;5051709;28;20132;-79
2022/05/02 09:53:04;;;;;;;0.57;0.57;;;;;;;18.33;45.20;98934.91;5051671;28;20135;-79
2022/05/02 09:58:57;;;;;;;0.10;0.10;;;;;;;18.46;45.07;98928.44;5051370;28;20071;-79
2022/05/02 10:01:31;;;;;;;0.10;0.10;;;;;;;18.61;45.28;98918.88;5049878;28;20462;-79
2022/05/02 10:04:12;;;;;;;0.17;0.17;;;;;;;18.60;43.31;98927.34;5052004;28;20108;-79
2022/05/02 10:06:38;;;;;;;0.00;0.00;;;;;;;18.50;43.32;98925.84;5050158;28;20120;-79
2022/05/02 10:09:43;;;;;;;0.08;0.08;;;;;;;18.51;43.04;98922.81;5051417;28;20100;-79
2022/05/02 10:12:12;;;;;;;0.57;0.57;;;;;;;18.50;43.96;98923.91;5051365;28;20033;-78
2022/05/02 10:14:49;;;;;;;0.40;0.40;;;;;;;18.63;43.15;98916.66;5049818;28;20468;-79
2022/05/02 10:17:24;;;;;;;0.10;0.10;;;;;;;18.54;43.39;98905.91;5049986;28;20032;-79
2022/05/02 10:20:13;;;;;;;0.10;0.10;;;;;;;18.57;44.12;98907.16;5050237;28;20021;-79
2022/05/02 10:22:47;;;;;;;0.15;0.15;;;;;;;18.50;44.38;98899.53;5049899;28;20032;-79
2022/05/02 10:25:25;;;;;;;0.10;0.10;;;;;;;18.44;43.68;98900.88;5049763;28;20455;-79
2022/05/02 10:28:27;;;;;;;0.20;0.20;;;;;;;18.49;44.34;98898.00;5049844;28;20037;-79
2022/05/02 10:30:58;;;;;;;0.55;0.30;;;;;;;18.45;44.31;98888.16;5049976;28;20029;-79
2022/05/02 10:33:31;;;;;;;0.10;0.10;;;;;;;18.42;44.60;98888.78;5051473;28;20480;-80
2022/05/02 10:35:58;;;;;;;0.30;0.30;;;;;;;18.35;44.15;98871.19;5051195;28;20021;-79
2022/05/02 10:38:29;;;;;;;0.40;0.40;;;;;;;18.32;44.07;98871.84;5049873;28;20083;-79
2022/05/02 10:41:15;;;;;;;0.10;0.10;;;;;;;18.28;44.26;98880.97;5049883;28;20439;-79
2022/05/02 10:43:50;;;;;;;0.17;0.17;;;;;;;18.30;44.65;98876.03;5049662;28;20024;-79
2022/05/02 10:46:18;;;;;;;0.57;0.57;;;;;;;18.21;44.36;98876.88;5049759;28;20025;-79
2022/05/02 10:48:59;;;;;;;0.55;0.55;;;;;;;18.05;45.10;98873.97;5050832;28;20032;-79
2022/05/02 10:51:59;;;;;;;0.03;0.03;;;;;;;17.97;45.09;98865.91;5049481;28;20502;-79
2022/05/02 10:54:42;;;;;;;0.13;0.13;;;;;;;17.97;45.16;98866.72;5049323;28;20021;-79
2022/05/02 10:57:31;;;;;;;0.10;0.10;;;;;;;18.05;45.68;98856.94;5049303;28;20051;-79
2022/05/02 11:00:02;;;;;;;0.20;0.20;;;;;;;18.06;44.75;98862.00;5049652;28;20025;-78
2022/05/02 11:02:58;;;;;;;0.47;0.47;;;;;;;18.08;44.00;98865.19;5049258;28;20481;-79
2022/05/02 11:05:42;;;;;;;1.10;0.57;;;;;;;18.08;43.96;98856.28;5049532;28;20028;-79
2022/05/02 11:08:12;;;;;;;0.10;0.10;;;;;;;18.08;42.26;98867.91;5049554;28;20029;-79
2022/05/02 11:10:52;;;;;;;0.15;0.15;;;;;;;18.04;41.92;98858.88;5049299;28;20021;-81
2022/05/02 11:13:59;;;;;;;0.00;0.00;;;;;;;18.12;42.52;98864.53;5049413;28;20074;-80
2022/05/02 11:16:34;;;;;;;0.08;0.08;;;;;;;18.15;43.92;98853.84;5048014;28;20035;-80
2022/05/02 11:22:05;;;;;;;0.10;0.10;;;;;;;18.16;43.69;98863.56;5050530;28;20098;-79
2022/05/02 11:24:42;;;;;;;0.73;0.73;;;;;;;18.13;43.69;98853.38;5050565;28;20055;-79
2022/05/02 11:27:46;;;;;;;0.10;0.10;;;;;;;18.16;44.40;98851.91;5050621;28;20563;-79
2022/05/02 11:30:13;;;;;;;0.00;0.00;;;;;;;18.16;44.16;98858.13;5048574;28;20029;-79
2022/05/02 11:33:04;;;;;;;0.25;0.25;;;;;;;18.19;44.01;98848.56;5050412;28;20052;-80
2022/05/02 11:35:31;;;;;;;0.00;0.00;;;;;;;18.22;43.96;98834.34;5050640;28;20028;-79
2022/05/02 11:38:06;;;;;;;0.00;0.00;;;;;;;18.33;44.20;98840.94;5049307;28;20025;-81
2022/05/02 11:40:34;;;;;;;0.10;0.10;;;;;;;18.39;44.06;98833.41;5048974;28;20032;-79
2022/05/02 11:43:03;;;;;;;0.08;0.08;;;;;;;18.51;43.66;98819.91;5049184;28;20024;-81
2022/05/02 11:45:57;;;;;;;0.00;0.00;;;;;;;18.43;43.38;98826.22;5050773;28;20057;-81
2022/05/02 11:48:41;;;;;;;0.40;0.40;;;;;;;18.46;43.67;98827.47;5048458;28;20133;-80
2022/05/02 11:51:15;;;;;;;0.10;0.10;;;;;;;18.42;43.51;98816.50;5048972;28;20515;-79
2022/05/02 11:53:48;;;;;;;2.55;0.45;;;;;;;18.34;44.06;98818.16;5048844;28;20033;-80
2022/05/02 11:56:16;;;;;;;0.08;0.08;;;;;;;18.27;44.21;98817.13;5050364;28;20037;-81
2022/05/02 11:58:46;;;;;;;0.10;0.10;;;;;;;18.26;44.18;98816.34;5048823;28;20439;-79
2022/05/02 12:01:22;;;;;;;0.10;0.10;;;;;;;18.28;44.09;98816.00;5049034;28;20060;-79
2022/05/02 12:04:00;;;;;;;0.00;0.00;;;;;;;18.29;44.09;98806.75;5048891;28;20029;-79
2022/05/02 12:06:36;;;;;;;;;;;;;;;18.40;44.33;98807.91;5051779;28;20068;-80
2022/05/02 12:09:03;;;;;;;0.35;0.35;;;;;;;18.47;43.76;98801.94;5052529;28;19917;-81
2022/05/02 12:11:31;;;;;;;0.98;0.17;;;;;;;18.44;42.94;98783.69;5052485;28;20029;-80
2022/05/02 12:14:00;;;;;;;0.00;0.00;;;;;;;18.57;42.76;98788.00;5052079;28;20461;-81
2022/05/02 12:16:27;;;;;;;0.10;0.10;;;;;;;18.61;43.17;98790.81;5052182;28;20025;-81
2022/05/02 12:18:55;;;;;;;0.10;0.10;;;;;;;18.67;42.84;98790.25;5051838;28;20048;-80
2022/05/02 12:21:35;;;;;;;0.30;0.30;;;;;;;18.60;39.99;98789.22;5052332;28;20128;-81
2022/05/02 12:24:00;;;;;;;0.15;0.15;;;;;;;18.62;40.68;98792.41;5052029;28;20032;-80
2022/05/02 12:26:26;;;;;;;0.00;0.00;;;;;;;18.64;40.97;98790.13;5052297;28;20021;-81
2022/05/02 12:28:58;;;;;;;0.20;0.20;;;;;;;18.66;41.17;98790.59;5051994;28;20037;-80